Time;durP1;ratioP1;P1;durP2;ratioP2;P2;SDS_P1;SDS_P2;PMS_P1;PMS_P2;Temp;Humidity;BMP_temperature;BMP_pressure;BME280_temperature;BME280_humidity;BME280_pressure;Samples;Min_cycle;Max_cycle;Signal;HPM_P1;HPM_P2
2022/01/30 00:01:46;;;;;;;2.60;2.10;;;;;;;4.49;100.00;98013.63;104975;1271;72359;-77
2022/01/30 00:04:13;;;;;;;2.30;1.80;;;;;;;4.49;100.00;98013.77;105247;1271;60497;-77
2022/01/30 00:06:40;;;;;;;1.80;1.70;;;;;;;4.52;100.00;98019.58;104998;1271;61020;-77
2022/01/30 00:09:10;;;;;;;2.00;1.80;;;;;;;4.53;100.00;98007.72;105023;1271;72711;-77
2022/01/30 00:11:38;;;;;;;1.70;1.60;;;;;;;4.57;100.00;97995.23;105272;1271;70326;-77
2022/01/30 00:14:06;;;;;;;3.30;1.90;;;;;;;4.59;100.00;97993.33;104959;1272;71491;-79
2022/01/30 00:16:36;;;;;;;2.20;1.70;;;;;;;4.63;100.00;97991.85;105227;1271;60497;-79
2022/01/30 00:19:14;;;;;;;4.70;2.30;;;;;;;4.66;100.00;97994.49;105238;1271;60992;-79
2022/01/30 00:21:46;;;;;;;1.60;1.50;;;;;;;4.70;100.00;97988.67;105237;1271;75209;-78
2022/01/30 00:24:20;;;;;;;2.20;1.90;;;;;;;4.73;100.00;97994.60;105221;1271;70193;-77
2022/01/30 00:26:47;;;;;;;2.70;1.60;;;;;;;4.75;100.00;97985.02;105188;1271;73548;-78
2022/01/30 00:29:14;;;;;;;1.80;1.60;;;;;;;4.76;100.00;97985.49;105357;1271;60545;-76
2022/01/30 00:31:40;;;;;;;2.00;1.60;;;;;;;4.75;100.00;97984.46;105272;1271;60978;-77
2022/01/30 00:34:07;;;;;;;2.30;2.10;;;;;;;4.74;100.00;97987.31;105260;1271;75574;-78
2022/01/30 00:36:33;;;;;;;2.80;2.10;;;;;;;4.75;100.00;97997.16;105237;1271;60343;-77
2022/01/30 00:39:01;;;;;;;2.40;1.70;;;;;;;4.75;100.00;97980.41;105249;1271;74169;-77
2022/01/30 00:41:27;;;;;;;1.90;1.80;;;;;;;4.75;100.00;97980.05;105266;1271;60462;-79
2022/01/30 00:43:54;;;;;;;2.00;1.60;;;;;;;4.76;100.00;97975.09;105239;1271;60328;-77
2022/01/30 00:46:20;;;;;;;2.00;1.50;;;;;;;4.78;100.00;97977.46;105224;1271;75584;-78
2022/01/30 00:48:47;;;;;;;3.50;1.90;;;;;;;4.79;100.00;97971.92;105308;1271;70326;-77
2022/01/30 00:51:16;;;;;;;1.60;1.50;;;;;;;4.80;100.00;97975.90;105009;1271;73565;-77
2022/01/30 00:53:44;;;;;;;2.90;1.90;;;;;;;4.78;100.00;97976.00;105302;1271;60464;-79
2022/01/30 00:56:10;;;;;;;2.60;2.20;;;;;;;4.76;100.00;97966.14;105270;1271;62022;-78
2022/01/30 00:58:37;;;;;;;3.20;1.90;;;;;;;4.73;100.00;97959.27;105316;1271;60415;-79
2022/01/30 01:01:04;;;;;;;4.60;2.10;;;;;;;4.72;100.00;97955.48;105289;1271;70724;-79
2022/01/30 01:03:32;;;;;;;1.80;1.60;;;;;;;4.74;100.00;97955.32;105287;1270;73260;-78
2022/01/30 01:05:59;;;;;;;2.10;1.90;;;;;;;4.78;100.00;97942.58;105254;1271;60472;-76
2022/01/30 01:08:48;;;;;;;4.00;2.60;;;;;;;4.83;100.00;97947.89;105260;1271;60874;-77
2022/01/30 01:24:57;;;;;;;1.90;1.80;;;;;;;4.83;100.00;97943.16;105242;1269;75370;-76
2022/01/30 01:27:24;;;;;;;3.20;2.00;;;;;;;4.78;100.00;97953.50;105251;1271;60370;-77
2022/01/30 01:29:51;;;;;;;2.50;1.90;;;;;;;4.73;100.00;97957.67;105261;1271;73634;-78
2022/01/30 01:32:17;;;;;;;2.30;2.10;;;;;;;4.73;100.00;97959.45;104948;1271;60517;-77
2022/01/30 01:34:44;;;;;;;2.00;1.50;;;;;;;4.77;100.00;97965.88;105249;1271;60373;-78
2022/01/30 01:37:12;;;;;;;2.20;1.80;;;;;;;4.81;100.00;97976.00;105274;1271;75594;-78
2022/01/30 01:39:38;;;;;;;2.50;1.90;;;;;;;4.91;100.00;97966.45;105280;1270;69429;-79
2022/01/30 01:42:05;;;;;;;3.70;1.60;;;;;;;5.01;100.00;97965.83;105279;1271;60363;-78
2022/01/30 01:44:45;;;;;;;2.40;1.90;;;;;;;5.07;100.00;97965.80;105260;1271;60500;-78
2022/01/30 01:47:14;;;;;;;2.00;1.40;;;;;;;5.14;100.00;97973.16;105331;1271;60793;-77
2022/01/30 01:49:41;;;;;;;3.30;1.70;;;;;;;5.19;100.00;97973.39;105247;1271;75238;-78
2022/01/30 01:52:19;;;;;;;3.40;1.60;;;;;;;5.22;100.00;97973.34;105253;1271;69270;-78
2022/01/30 01:54:49;;;;;;;3.80;2.20;;;;;;;5.26;100.00;97977.66;105232;1271;73115;-76
2022/01/30 01:57:16;;;;;;;4.00;1.70;;;;;;;5.26;100.00;97988.08;105327;1271;60557;-79
2022/01/30 01:59:43;;;;;;;3.10;1.70;;;;;;;5.26;100.00;97983.34;105245;1271;60832;-78
2022/01/30 02:02:09;;;;;;;2.50;1.40;;;;;;;5.26;100.00;97989.84;105265;1271;75296;-78
2022/01/30 02:04:39;;;;;;;3.70;2.00;;;;;;;5.23;100.00;97993.73;105219;1271;69228;-77
2022/01/30 02:09:52;;;;;;;3.70;1.60;;;;;;;5.19;99.97;97986.20;105254;1269;60500;-75
2022/01/30 02:12:26;;;;;;;2.10;1.20;;;;;;;5.18;99.49;97985.90;105237;1271;60377;-77
2022/01/30 02:25:46;;;;;;;3.90;1.70;;;;;;;5.07;96.14;97991.02;105263;1270;60820;-79
2022/01/30 02:28:16;;;;;;;3.60;2.20;;;;;;;4.98;97.36;97990.27;104954;1270;74494;-78
2022/01/30 02:30:46;;;;;;;5.80;2.30;;;;;;;4.90;98.61;97985.85;105280;1270;69392;-78
2022/01/30 02:33:13;;;;;;;4.90;2.30;;;;;;;4.83;99.66;97988.23;105270;1271;73086;-77
2022/01/30 02:35:39;;;;;;;4.50;2.10;;;;;;;4.77;99.70;97985.05;105293;1269;60401;-78
2022/01/30 02:38:06;;;;;;;4.00;2.20;;;;;;;4.74;99.88;97973.64;105282;1271;61232;-77
2022/01/30 02:40:38;;;;;;;3.60;1.90;;;;;;;4.72;97.77;97973.77;105325;1271;74321;-77
2022/01/30 02:43:05;;;;;;;4.00;1.40;;;;;;;4.81;94.52;97975.31;105289;1270;69145;-75
2022/01/30 02:45:35;;;;;;;5.20;1.90;;;;;;;4.86;93.16;97977.46;105357;1270;72369;-79
2022/01/30 02:51:08;;;;;;;4.10;1.30;;;;;;;4.92;89.55;97983.50;106031;1271;61949;-78
2022/01/30 02:53:29;;;;;;;5.20;1.40;;;;;;;4.94;88.84;97970.13;105168;1277;77207;-77
2022/01/30 02:55:57;;;;;;;6.30;1.80;;;;;;;4.95;89.97;97977.63;105054;1277;69224;-78
2022/01/30 02:58:24;;;;;;;6.40;1.60;;;;;;;4.93;88.43;97985.85;105039;1277;73177;-78
2022/01/30 03:00:51;;;;;;;5.50;1.30;;;;;;;4.94;86.86;97978.79;105324;1277;60886;-78
2022/01/30 03:03:17;;;;;;;8.20;2.20;;;;;;;4.94;86.45;97987.52;106081;1277;60578;-79
2022/01/30 03:05:44;;;;;;;4.90;1.80;;;;;;;4.92;87.25;97979.95;105631;1277;60337;-79
2022/01/30 03:08:10;;;;;;;4.40;1.70;;;;;;;4.86;85.58;97973.44;106712;1276;60785;-78
2022/01/30 03:10:37;;;;;;;4.70;1.20;;;;;;;4.88;84.08;97968.06;108012;1276;60632;-79
2022/01/30 03:13:03;;;;;;;4.80;1.20;;;;;;;4.86;84.69;97961.48;107442;1276;59436;-78
2022/01/30 03:15:30;;;;;;;4.30;1.40;;;;;;;4.81;85.95;97959.08;108375;1275;61168;-77
2022/01/30 03:17:56;;;;;;;2.30;1.00;;;;;;;4.77;85.27;97960.63;108322;1276;74722;-77
2022/01/30 03:20:23;;;;;;;6.10;1.50;;;;;;;4.77;83.40;97957.44;106587;1277;60492;-77
2022/01/30 03:22:50;;;;;;;3.50;1.10;;;;;;;4.77;84.25;97952.88;104871;1277;74589;-78
2022/01/30 03:25:16;;;;;;;6.20;1.70;;;;;;;4.70;84.94;97953.08;105153;1271;60571;-79
2022/01/30 03:27:45;;;;;;;2.90;1.60;;;;;;;4.62;83.79;97944.09;105291;1271;60440;-78
2022/01/30 03:30:18;;;;;;;5.80;1.80;;;;;;;4.61;83.75;97944.46;105259;1271;73375;-78
2022/01/30 03:32:45;;;;;;;5.30;1.60;;;;;;;4.62;83.20;97943.89;105256;1271;69174;-79
2022/01/30 03:35:11;;;;;;;7.00;2.10;;;;;;;4.64;83.59;97944.16;105228;1271;73416;-77
2022/01/30 03:37:38;;;;;;;6.30;1.60;;;;;;;4.61;84.25;97939.39;105051;1271;60514;-77
2022/01/30 03:40:05;;;;;;;7.10;1.70;;;;;;;4.57;84.30;97939.80;105088;1271;60521;-77
2022/01/30 03:42:32;;;;;;;4.60;1.60;;;;;;;4.54;84.35;97938.23;105087;1271;74506;-77
2022/01/30 03:44:59;;;;;;;6.40;2.00;;;;;;;4.53;85.16;97935.65;105224;1271;69433;-77
2022/01/30 03:47:26;;;;;;;7.20;1.90;;;;;;;4.52;84.57;97934.62;105252;1271;74414;-77
2022/01/30 03:49:53;;;;;;;5.70;1.60;;;;;;;4.54;84.72;97932.27;105203;1271;60543;-76
2022/01/30 03:52:19;;;;;;;7.10;1.80;;;;;;;4.55;85.83;97930.61;105216;1271;61829;-77
2022/01/30 03:54:46;;;;;;;6.10;2.00;;;;;;;4.56;85.58;97923.00;105280;1271;74321;-77
2022/01/30 03:57:13;;;;;;;5.50;1.70;;;;;;;4.55;86.93;97920.92;105224;1271;69181;-77
2022/01/30 03:59:40;;;;;;;6.40;1.60;;;;;;;4.51;86.39;97922.20;105222;1270;74639;-79
2022/01/30 04:02:08;;;;;;;6.50;1.60;;;;;;;4.53;86.29;97929.29;105205;1270;60489;-77
2022/01/30 04:04:34;;;;;;;8.60;1.90;;;;;;;4.54;86.95;97930.31;105198;1270;60831;-77
2022/01/30 04:07:01;;;;;;;6.90;1.60;;;;;;;4.54;87.02;97931.55;105282;1270;74849;-77
2022/01/30 04:09:28;;;;;;;5.20;1.40;;;;;;;4.52;87.06;97929.17;105190;1271;69364;-77
2022/01/30 04:11:55;;;;;;;9.50;2.20;;;;;;;4.52;87.74;97920.01;105239;1271;73635;-76
2022/01/30 04:14:22;;;;;;;5.40;2.00;;;;;;;4.48;87.91;97907.45;105224;1271;60491;-77
2022/01/30 04:16:49;;;;;;;5.30;1.60;;;;;;;4.44;88.31;97908.90;104945;1271;61967;-77
2022/01/30 04:19:16;;;;;;;5.40;1.80;;;;;;;4.38;88.78;97900.63;105267;1271;74474;-78
2022/01/30 04:21:43;;;;;;;5.40;1.30;;;;;;;4.37;88.88;97902.64;105115;1271;70325;-76
2022/01/30 04:24:09;;;;;;;5.50;2.90;;;;;;;4.35;89.18;97901.16;105235;1270;73343;-78
2022/01/30 04:26:36;;;;;;;7.40;2.40;;;;;;;4.34;89.68;97905.09;105255;1271;60471;-77
2022/01/30 04:29:03;;;;;;;5.80;2.40;;;;;;;4.33;89.84;97928.57;105280;1271;60876;-78
2022/01/30 04:31:30;;;;;;;4.60;2.20;;;;;;;4.32;90.07;97939.30;105018;1271;74455;-78
2022/01/30 04:33:57;;;;;;;4.30;1.70;;;;;;;4.35;89.74;97962.88;105240;1271;69151;-78
2022/01/30 04:36:29;;;;;;;3.60;1.40;;;;;;;4.43;89.01;97966.98;105081;1271;74818;-78
2022/01/30 04:39:04;;;;;;;4.10;1.20;;;;;;;4.49;88.60;97967.91;105252;1270;60555;-77
2022/01/30 04:41:53;;;;;;;7.90;1.60;;;;;;;4.50;88.57;97975.02;104986;1269;60958;-77
2022/01/30 05:08:27;;;;;;;5.90;1.40;;;;;;;4.23;87.21;97919.68;104835;1277;60813;-76
2022/01/30 05:10:54;;;;;;;6.10;1.20;;;;;;;4.26;85.96;97914.35;104795;1277;74859;-79
2022/01/30 05:13:24;;;;;;;3.80;1.10;;;;;;;4.32;85.48;97906.27;104917;1277;70463;-77
2022/01/30 05:15:52;;;;;;;4.40;1.40;;;;;;;4.40;81.82;97899.13;104883;1276;73157;-76
2022/01/30 05:18:22;;;;;;;6.70;1.30;;;;;;;4.55;79.66;97901.41;104811;1277;60622;-77
2022/01/30 05:20:48;;;;;;;;;;;;;;;4.66;78.59;97903.55;105053;1277;60687;-77
2022/01/30 05:23:16;;;;;;;8.40;1.90;;;;;;;4.72;78.45;97904.39;104865;1277;60623;-77
2022/01/30 05:25:46;;;;;;;7.30;1.50;;;;;;;4.75;78.32;97897.90;104943;1276;69265;-78
2022/01/30 05:28:14;;;;;;;11.10;2.00;;;;;;;4.79;77.62;97908.76;104898;1277;72658;-77
2022/01/30 05:30:40;;;;;;;4.30;1.20;;;;;;;4.81;77.29;97900.86;104811;1277;60485;-79
2022/01/30 05:33:07;;;;;;;3.90;1.20;;;;;;;4.83;77.49;97887.34;104863;1275;61969;-78
2022/01/30 05:35:34;;;;;;;5.00;1.10;;;;;;;4.85;77.16;97894.31;104865;1277;73858;-77
2022/01/30 05:38:03;;;;;;;5.80;1.50;;;;;;;4.83;77.76;97890.70;104895;1275;70308;-77
2022/01/30 05:40:30;;;;;;;5.90;1.80;;;;;;;4.82;77.87;97884.95;104885;1277;74255;-77
2022/01/30 05:42:57;;;;;;;8.20;1.60;;;;;;;4.82;77.43;97893.77;104565;1277;60529;-76
2022/01/30 05:45:49;;;;;;;7.40;1.80;;;;;;;4.80;78.02;97890.39;105175;1271;62104;-78
2022/01/30 05:48:17;;;;;;;7.10;1.90;;;;;;;4.77;78.27;97893.39;105256;1271;75451;-78
2022/01/30 05:50:44;;;;;;;6.40;1.20;;;;;;;4.74;78.94;97886.14;105342;1270;68847;-79
2022/01/30 05:53:13;;;;;;;6.30;1.70;;;;;;;4.72;78.09;97871.34;105253;1271;73146;-78
2022/01/30 05:55:40;;;;;;;7.60;2.40;;;;;;;4.72;79.01;97863.98;105279;1271;60487;-77
2022/01/30 05:58:08;;;;;;;7.00;1.70;;;;;;;4.70;79.79;97849.83;104990;1271;62192;-78
2022/01/30 06:00:35;;;;;;;5.30;1.80;;;;;;;4.66;80.36;97850.94;105046;1271;74646;-78
2022/01/30 06:03:02;;;;;;;4.10;1.70;;;;;;;4.61;80.75;97847.36;105060;1271;69138;-77
2022/01/30 06:05:28;;;;;;;3.40;1.20;;;;;;;4.57;81.50;97846.73;105119;1271;60906;-78
2022/01/30 06:07:57;;;;;;;4.00;1.90;;;;;;;4.54;81.27;97842.00;105110;1271;60488;-78
2022/01/30 06:10:27;;;;;;;8.50;2.90;;;;;;;4.49;81.93;97848.97;105141;1271;60443;-78
2022/01/30 06:12:54;;;;;;;8.70;2.20;;;;;;;4.44;82.34;97836.66;105141;1271;73483;-78
2022/01/30 06:15:21;;;;;;;5.40;2.20;;;;;;;4.39;82.05;97831.11;105117;1271;70360;-76
2022/01/30 06:17:47;;;;;;;3.90;2.00;;;;;;;4.38;81.92;97832.59;105095;1271;74351;-78
2022/01/30 06:20:14;;;;;;;4.40;1.70;;;;;;;4.39;80.93;97842.04;104970;1271;60481;-79
2022/01/30 06:22:41;;;;;;;5.00;1.80;;;;;;;4.44;81.14;97843.84;105140;1271;62191;-80
2022/01/30 06:25:09;;;;;;;8.00;2.00;;;;;;;4.47;80.99;97849.32;105135;1271;75462;-78
2022/01/30 06:27:37;;;;;;;9.40;2.40;;;;;;;4.49;80.19;97844.95;105179;1271;69938;-77
2022/01/30 06:30:05;;;;;;;5.50;1.60;;;;;;;4.52;80.79;97841.04;105131;1271;72201;-77
2022/01/30 06:32:32;;;;;;;7.40;2.60;;;;;;;4.53;80.58;97839.04;105108;1271;60588;-77
2022/01/30 06:34:59;;;;;;;6.00;1.70;;;;;;;4.55;79.90;97844.25;105144;1271;62428;-79
2022/01/30 06:37:26;;;;;;;6.20;1.70;;;;;;;4.57;79.89;97832.50;104931;1271;74607;-79
2022/01/30 06:39:52;;;;;;;6.20;1.90;;;;;;;4.60;79.30;97834.63;105002;1271;69632;-74
2022/01/30 06:42:19;;;;;;;3.90;1.70;;;;;;;4.60;79.46;97834.73;105018;1271;72691;-77
2022/01/30 06:44:46;;;;;;;4.30;2.10;;;;;;;4.62;79.92;97831.10;105100;1271;60661;-78
2022/01/30 06:47:12;;;;;;;4.60;2.00;;;;;;;4.61;79.94;97837.19;105050;1271;61764;-78
2022/01/30 06:49:39;;;;;;;4.60;1.80;;;;;;;4.59;80.06;97842.04;105295;1271;75313;-77
2022/01/30 06:52:09;;;;;;;4.30;1.50;;;;;;;4.57;79.54;97841.28;105341;1271;70378;-78
2022/01/30 06:54:35;;;;;;;6.10;2.00;;;;;;;4.57;80.29;97833.05;105141;1271;73371;-80
2022/01/30 06:57:04;;;;;;;4.60;1.90;;;;;;;4.53;80.66;97831.14;105175;1271;60736;-81
2022/01/30 06:59:31;;;;;;;4.50;1.50;;;;;;;4.49;80.84;97830.89;105345;1271;62188;-78
2022/01/30 07:01:57;;;;;;;6.30;2.30;;;;;;;4.45;80.89;97834.81;105466;1271;60408;-78
2022/01/30 07:04:24;;;;;;;6.10;2.00;;;;;;;4.42;81.58;97847.15;105623;1270;60516;-76
2022/01/30 07:06:50;;;;;;;4.60;2.20;;;;;;;4.38;81.94;97836.42;105213;1271;60467;-79
2022/01/30 07:09:17;;;;;;;7.70;2.30;;;;;;;4.36;81.78;97843.77;105255;1271;60588;-78
2022/01/30 07:11:44;;;;;;;4.90;1.90;;;;;;;4.34;82.00;97843.92;105281;1270;60496;-78
2022/01/30 07:14:10;;;;;;;5.80;1.90;;;;;;;4.31;82.45;97840.22;105023;1271;73783;-79
2022/01/30 07:16:37;;;;;;;8.60;2.10;;;;;;;4.28;82.80;97844.98;105292;1270;60543;-81
2022/01/30 07:19:03;;;;;;;11.20;1.70;;;;;;;4.26;82.81;97841.05;105253;1271;60369;-77
2022/01/30 07:21:30;;;;;;;5.70;1.70;;;;;;;4.25;82.99;97853.80;105228;1271;60459;-78
2022/01/30 07:23:56;;;;;;;4.30;1.50;;;;;;;4.25;82.36;97846.06;105257;1271;61726;-78
2022/01/30 07:26:23;;;;;;;5.60;1.70;;;;;;;4.28;82.03;97843.20;105252;1271;60456;-79
2022/01/30 07:28:49;;;;;;;4.90;2.10;;;;;;;4.29;82.77;97835.41;105259;1271;60593;-78
2022/01/30 07:31:16;;;;;;;9.60;2.50;;;;;;;4.27;82.57;97829.73;105259;1270;60489;-78
2022/01/30 07:33:43;;;;;;;5.90;2.20;;;;;;;4.26;82.92;97836.30;105414;1270;60500;-78
2022/01/30 07:36:10;;;;;;;4.80;2.00;;;;;;;4.24;83.13;97828.71;105247;1271;60345;-79
2022/01/30 07:38:37;;;;;;;9.80;2.80;;;;;;;4.22;83.39;97823.39;105282;1271;74404;-80
2022/01/30 07:41:04;;;;;;;6.10;2.50;;;;;;;4.18;83.59;97826.73;105242;1270;70257;-80
2022/01/30 07:43:31;;;;;;;7.60;2.60;;;;;;;4.17;83.56;97821.20;105264;1270;73322;-78
2022/01/30 07:45:58;;;;;;;4.80;2.50;;;;;;;4.16;83.57;97817.89;105255;1271;60504;-78
2022/01/30 07:48:25;;;;;;;6.10;2.50;;;;;;;4.14;83.75;97819.25;105283;1271;61947;-78
2022/01/30 07:50:51;;;;;;;8.00;2.40;;;;;;;4.13;83.80;97814.58;105312;1271;75276;-78
2022/01/30 07:53:18;;;;;;;4.60;1.90;;;;;;;4.13;83.79;97809.69;105287;1270;68205;-79
2022/01/30 07:55:44;;;;;;;4.10;2.00;;;;;;;4.11;84.07;97810.86;105240;1270;72899;-77
2022/01/30 07:58:12;;;;;;;6.20;2.10;;;;;;;4.08;84.25;97815.22;105251;1271;60565;-79
2022/01/30 08:00:39;;;;;;;6.30;2.30;;;;;;;4.10;84.67;97822.70;105275;1271;60442;-79
2022/01/30 08:03:06;;;;;;;7.90;2.00;;;;;;;4.13;84.27;97827.40;105444;1271;75397;-78
2022/01/30 08:05:32;;;;;;;6.50;2.10;;;;;;;4.19;84.31;97822.64;105242;1271;69175;-77
2022/01/30 08:07:59;;;;;;;8.40;2.40;;;;;;;4.22;84.19;97827.23;105255;1271;74346;-78
2022/01/30 08:10:25;;;;;;;4.30;2.20;;;;;;;4.21;84.88;97822.91;105307;1271;61904;-76
2022/01/30 08:12:52;;;;;;;7.00;2.30;;;;;;;4.16;85.15;97801.23;105273;1270;60458;-79
2022/01/30 08:15:19;;;;;;;7.70;2.20;;;;;;;4.14;85.19;97779.35;105049;1271;60424;-78
2022/01/30 08:17:47;;;;;;;8.40;2.90;;;;;;;4.16;85.61;97784.51;104987;1272;67402;-78
2022/01/30 08:20:14;;;;;;;7.50;3.10;;;;;;;4.17;86.15;97785.16;105270;1271;73470;-77
2022/01/30 08:23:00;;;;;;;6.40;2.70;;;;;;;4.18;86.72;97786.85;105315;1270;60613;-78
2022/01/30 08:25:27;;;;;;;5.10;2.10;;;;;;;4.13;87.47;97792.41;105373;1271;60978;-79
2022/01/30 08:27:54;;;;;;;5.60;2.50;;;;;;;4.04;88.40;97811.30;105010;1271;75633;-78
2022/01/30 08:30:21;;;;;;;7.40;2.70;;;;;;;3.93;89.07;97821.90;105046;1272;69599;-78
2022/01/30 08:32:52;;;;;;;5.50;2.30;;;;;;;3.84;90.11;97829.65;105319;1271;60585;-80
2022/01/30 08:35:19;;;;;;;5.00;2.50;;;;;;;3.74;90.94;97834.78;105327;1271;60453;-80
2022/01/30 08:37:45;;;;;;;6.30;3.20;;;;;;;3.66;91.80;97855.63;105300;1271;61814;-77
2022/01/30 08:40:18;;;;;;;8.10;3.40;;;;;;;3.60;92.26;97860.92;105375;1270;74809;-80
2022/01/30 08:42:46;;;;;;;11.60;4.10;;;;;;;3.57;93.01;97857.73;105443;1271;69184;-78
2022/01/30 08:45:16;;;;;;;8.40;4.10;;;;;;;3.52;93.42;97871.70;105349;1271;73463;-78
2022/01/30 08:47:46;;;;;;;11.60;4.50;;;;;;;3.41;95.27;97886.00;105214;1272;60679;-77
2022/01/30 08:50:15;;;;;;;7.20;3.40;;;;;;;3.29;96.18;97887.54;105463;1271;60789;-78
2022/01/30 08:52:42;;;;;;;7.80;3.70;;;;;;;3.23;97.15;97883.13;105059;1271;75014;-76
2022/01/30 08:55:10;;;;;;;8.40;3.10;;;;;;;3.12;98.43;97886.02;105662;1271;69184;-78
2022/01/30 08:57:37;;;;;;;5.80;2.40;;;;;;;3.05;98.44;97888.36;105646;1271;74266;-78
2022/01/30 09:00:10;;;;;;;6.70;3.00;;;;;;;2.97;99.74;97884.90;106700;1271;60436;-79
2022/01/30 09:02:38;;;;;;;6.50;2.20;;;;;;;2.90;99.71;97888.42;106067;1271;60739;-76
2022/01/30 09:05:06;;;;;;;6.70;2.60;;;;;;;2.89;99.72;97875.02;107391;1271;74344;-78
2022/01/30 09:07:35;;;;;;;7.60;2.60;;;;;;;2.91;100.00;97869.48;108317;1271;69398;-77
2022/01/30 09:10:04;;;;;;;6.20;3.00;;;;;;;2.99;100.00;97863.23;108332;1271;73354;-76
2022/01/30 09:12:31;;;;;;;5.30;2.80;;;;;;;3.10;100.00;97858.08;107908;1271;1002395;-76
2022/01/30 09:14:57;;;;;;;5.30;2.10;;;;;;;3.18;99.99;97860.06;108505;1271;60818;-78
2022/01/30 09:17:26;;;;;;;5.60;2.00;;;;;;;3.23;99.74;97859.09;105877;1271;74361;-80
2022/01/30 09:19:52;;;;;;;4.40;2.30;;;;;;;3.24;99.53;97846.76;105335;1271;69204;-76
2022/01/30 09:22:19;;;;;;;5.90;2.20;;;;;;;3.23;99.25;97855.23;105272;1271;60474;-80
2022/01/30 09:24:47;;;;;;;5.40;2.20;;;;;;;3.26;98.70;97845.97;105283;1271;60383;-80
2022/01/30 09:27:15;;;;;;;5.00;1.80;;;;;;;3.30;97.47;97854.48;105058;1271;60821;-80
2022/01/30 09:29:42;;;;;;;5.30;1.90;;;;;;;3.40;96.48;97852.20;105043;1271;72737;-78
2022/01/30 09:32:09;;;;;;;7.90;2.50;;;;;;;3.47;96.48;97851.44;105467;1271;69038;-77
2022/01/30 09:34:36;;;;;;;6.50;2.60;;;;;;;3.51;95.88;97848.41;105268;1271;74158;-76
2022/01/30 09:37:07;;;;;;;6.70;2.10;;;;;;;3.55;96.16;97837.84;105043;1271;60490;-78
2022/01/30 09:39:34;;;;;;;5.30;2.00;;;;;;;3.57;96.03;97840.70;105244;1271;60875;-78
2022/01/30 09:42:01;;;;;;;5.80;2.50;;;;;;;3.63;95.16;97845.77;105038;1268;74285;-78
2022/01/30 09:44:28;;;;;;;7.20;3.30;;;;;;;3.76;95.23;97840.48;105072;1271;67313;-79
2022/01/30 09:46:54;;;;;;;7.50;3.10;;;;;;;3.85;94.94;97843.09;104977;1271;74338;-78
2022/01/30 09:49:24;;;;;;;6.40;3.20;;;;;;;3.94;94.78;97848.20;105256;1271;60514;-79
2022/01/30 09:51:53;;;;;;;6.00;3.10;;;;;;;3.97;95.06;97855.96;105342;1271;60940;-79
2022/01/30 09:54:21;;;;;;;6.90;2.70;;;;;;;3.94;94.61;97851.70;105246;1271;74295;-78
2022/01/30 09:56:48;;;;;;;9.00;2.10;;;;;;;3.94;94.17;97844.86;105222;1271;68788;-77
2022/01/30 09:59:15;;;;;;;6.20;2.80;;;;;;;3.98;93.41;97846.23;105339;1271;73899;-77
2022/01/30 10:01:42;;;;;;;6.30;2.20;;;;;;;3.99;93.04;97843.56;105388;1271;60464;-80
2022/01/30 10:04:09;;;;;;;8.10;2.60;;;;;;;3.95;93.23;97846.20;105312;1271;61685;-77
2022/01/30 10:07:20;;;;;;;5.90;3.00;;;;;;;4.00;91.70;97841.17;105258;1271;74304;-77
2022/01/30 10:09:49;;;;;;;5.40;2.00;;;;;;;4.16;91.09;97829.70;104590;1277;69441;-77
2022/01/30 10:12:24;;;;;;;7.20;2.30;;;;;;;4.22;91.16;97828.10;104591;1277;73236;-78
2022/01/30 10:14:52;;;;;;;7.90;3.90;;;;;;;4.27;90.26;97826.77;104625;1277;60881;-78
2022/01/30 10:17:33;;;;;;;6.80;2.30;;;;;;;4.30;89.49;97815.34;104673;1277;61838;-79
2022/01/30 10:20:17;;;;;;;5.90;2.40;;;;;;;4.38;89.12;97818.17;104651;1277;75351;-78
2022/01/30 10:22:58;;;;;;;9.20;3.50;;;;;;;4.54;88.57;97810.34;104685;1277;70237;-79
2022/01/30 10:25:26;;;;;;;9.00;3.10;;;;;;;4.69;88.74;97807.66;104671;1277;73456;-78
2022/01/30 10:28:13;;;;;;;7.70;2.60;;;;;;;4.66;88.07;97804.53;104669;1277;60574;-78
2022/01/30 10:30:44;;;;;;;7.40;2.70;;;;;;;4.55;87.97;97809.19;104664;1277;60644;-78
2022/01/30 10:33:13;;;;;;;6.70;2.50;;;;;;;4.53;88.76;97800.20;104730;1277;75521;-80
2022/01/30 10:35:51;;;;;;;5.30;2.50;;;;;;;4.52;88.33;97796.05;104710;1277;70383;-78
2022/01/30 10:38:23;;;;;;;5.60;3.00;;;;;;;4.60;89.06;97789.92;104666;1276;73604;-79
2022/01/30 10:41:17;;;;;;;9.30;3.10;;;;;;;4.64;88.52;97792.84;104861;1277;60720;-80
2022/01/30 10:43:46;;;;;;;6.10;2.40;;;;;;;4.67;88.23;97796.33;104633;1277;60862;-78
2022/01/30 10:46:18;;;;;;;6.80;2.90;;;;;;;4.72;88.03;97792.52;105086;1271;75577;-79
2022/01/30 10:49:07;;;;;;;6.80;2.50;;;;;;;4.71;87.54;97793.50;105106;1271;68464;-78
2022/01/30 10:51:34;;;;;;;5.40;2.00;;;;;;;4.62;88.40;97803.86;105020;1271;73154;-78
2022/01/30 10:54:05;;;;;;;6.60;2.80;;;;;;;4.59;87.96;97809.34;105275;1271;60491;-78
2022/01/30 10:56:34;;;;;;;4.50;1.80;;;;;;;4.48;87.89;97809.66;105276;1271;61253;-77
2022/01/30 10:59:07;;;;;;;6.20;2.30;;;;;;;4.38;88.63;97825.58;105358;1271;75520;-78
2022/01/30 11:01:35;;;;;;;7.30;2.50;;;;;;;4.34;89.16;97829.31;105273;1271;69162;-78
2022/01/30 11:04:01;;;;;;;4.30;2.00;;;;;;;4.30;89.71;97836.25;105315;1271;74481;-78
2022/01/30 11:06:30;;;;;;;6.30;2.10;;;;;;;4.30;89.55;97830.64;105268;1271;60468;-77
2022/01/30 11:09:31;;;;;;;5.50;2.60;;;;;;;4.31;88.69;97836.73;105117;1271;61817;-81
2022/01/30 11:12:04;;;;;;;6.60;2.30;;;;;;;4.27;89.31;97831.31;105550;1277;74340;-79
2022/01/30 11:15:04;;;;;;;9.40;2.00;;;;;;;4.24;88.50;97825.89;105483;1277;70119;-79
2022/01/30 11:17:25;;;;;;;6.80;2.50;;;;;;;4.24;88.53;97826.42;104672;1277;73273;-82
2022/01/30 11:19:53;;;;;;;5.80;2.00;;;;;;;4.22;89.13;97826.70;104606;1277;60587;-81
2022/01/30 11:22:24;;;;;;;7.90;2.60;;;;;;;4.20;89.00;97847.19;104781;1277;60679;-81
2022/01/30 11:25:01;;;;;;;8.70;2.00;;;;;;;4.22;88.51;97857.99;104672;1277;74883;-79
2022/01/30 11:27:28;;;;;;;7.00;2.70;;;;;;;4.23;89.19;97874.80;104663;1277;68166;-78
2022/01/30 11:29:54;;;;;;;6.10;2.50;;;;;;;4.19;89.81;97877.69;104625;1277;72718;-79
2022/01/30 11:32:22;;;;;;;8.20;2.50;;;;;;;4.12;90.56;97885.98;104649;1277;60485;-79
2022/01/30 11:34:49;;;;;;;6.30;2.30;;;;;;;4.03;91.75;97891.29;104905;1277;61848;-82
2022/01/30 11:37:17;;;;;;;7.60;2.80;;;;;;;3.89;93.42;97898.05;104870;1277;74107;-84
2022/01/30 11:39:47;;;;;;;7.90;2.50;;;;;;;3.73;94.92;97903.90;105048;1277;68575;-82
2022/01/30 11:42:25;;;;;;;9.50;3.20;;;;;;;3.59;95.90;97915.59;105028;1277;73712;-83
2022/01/30 11:45:03;;;;;;;8.70;2.80;;;;;;;3.44;97.44;97907.97;105130;1277;60640;-86
2022/01/30 11:47:49;;;;;;;8.40;3.30;;;;;;;3.29;98.62;97921.27;104909;1277;60927;-86
2022/01/30 11:50:18;;;;;;;10.70;3.30;;;;;;;3.12;99.44;97919.02;106513;1271;74274;-84
2022/01/30 11:52:51;;;;;;;6.90;3.00;;;;;;;3.00;100.00;97928.08;106665;1271;67780;-83
2022/01/30 11:55:37;;;;;;;8.40;4.10;;;;;;;2.88;100.00;97932.58;105842;1271;74329;-83
2022/01/30 11:58:04;;;;;;;11.80;4.00;;;;;;;2.78;100.00;97931.55;105490;1271;60567;-82
2022/01/30 12:00:47;;;;;;;11.20;3.70;;;;;;;2.79;100.00;97931.49;105726;1270;60441;-85
2022/01/30 12:03:27;;;;;;;9.40;3.50;;;;;;;2.89;100.00;97917.13;105711;1271;74305;-81
2022/01/30 12:05:56;;;;;;;12.90;4.20;;;;;;;2.95;100.00;97907.10;105764;1270;69082;-86
2022/01/30 12:08:44;;;;;;;9.60;3.30;;;;;;;2.98;100.00;97906.27;105478;1272;72098;-79
2022/01/30 12:11:34;;;;;;;8.90;2.70;;;;;;;3.06;100.00;97907.56;105393;1271;60631;-78
2022/01/30 12:14:10;;;;;;;9.50;2.90;;;;;;;3.20;100.00;97903.00;105384;1271;61311;-77
2022/01/30 12:16:45;;;;;;;8.70;2.90;;;;;;;3.33;99.92;97901.02;105781;1269;75908;-79
2022/01/30 12:19:30;;;;;;;8.30;2.50;;;;;;;3.44;99.28;97897.41;105847;1271;69216;-79
2022/01/30 12:21:58;;;;;;;6.60;2.60;;;;;;;3.57;98.92;97893.76;105727;1270;73971;-74
2022/01/30 12:24:27;;;;;;;8.80;2.60;;;;;;;3.63;98.12;97885.30;105869;1271;60507;-79
2022/01/30 12:27:00;;;;;;;7.40;2.80;;;;;;;3.66;97.31;97876.34;105509;1272;60787;-80
2022/01/30 12:29:43;;;;;;;6.80;2.50;;;;;;;3.71;96.10;97877.98;105554;1268;74321;-77
2022/01/30 12:32:22;;;;;;;9.50;2.60;;;;;;;3.77;96.46;97885.55;105367;1269;69160;-78
2022/01/30 12:34:54;;;;;;;6.60;1.80;;;;;;;3.81;94.88;97884.66;105390;1269;73421;-77
2022/01/30 12:37:29;;;;;;;8.50;1.90;;;;;;;3.87;94.53;97892.40;105415;1268;60723;-77